Time;durP1;ratioP1;P1;durP2;ratioP2;P2;SDS_P1;SDS_P2;PMS_P1;PMS_P2;Temp;Humidity;BMP_temperature;BMP_pressure;BME280_temperature;BME280_humidity;BME280_pressure;Samples;Min_cycle;Max_cycle;Signal;HPM_P1;HPM_P2
2022/02/13 00:00:17;;;;;;;12.80;4.73;;;4.30;99.90;;;;;;5030027;28;20034;-69
2022/02/13 00:02:44;;;;;;;11.27;4.03;;;4.20;99.90;;;;;;5029981;28;20025;-70
2022/02/13 00:05:11;;;;;;;7.83;3.80;;;4.20;99.90;;;;;;5029442;28;20389;-69
2022/02/13 00:07:38;;;;;;;12.27;4.50;;;4.20;99.90;;;;;;5029679;28;20030;-70
2022/02/13 00:10:07;;;;;;;11.07;4.00;;;4.20;99.90;;;;;;5043390;22;20053;-67
2022/02/13 00:12:33;;;;;;;10.02;3.90;;;4.20;99.90;;;;;;5029101;28;20389;-67
2022/02/13 00:14:59;;;;;;;10.07;3.97;;;4.20;99.90;;;;;;5032837;28;20144;-67
2022/02/13 00:17:25;;;;;;;10.50;4.17;;;4.20;99.90;;;;;;5033783;28;20063;-67
2022/02/13 00:19:51;;;;;;;8.83;3.47;;;4.20;99.90;;;;;;5032944;28;20029;-66
2022/02/13 00:22:17;;;;;;;7.80;4.03;;;4.20;99.90;;;;;;5033809;28;20021;-67
2022/02/13 00:24:44;;;;;;;8.97;4.03;;;4.30;99.90;;;;;;5032565;28;20040;-67
2022/02/13 00:27:11;;;;;;;10.00;3.97;;;4.20;99.90;;;;;;5033801;28;20135;-67
2022/02/13 00:29:38;;;;;;;10.27;3.87;;;4.30;99.90;;;;;;5031963;28;20527;-66
2022/02/13 00:32:05;;;;;;;9.57;4.20;;;4.20;99.90;;;;;;5033388;28;20057;-66
2022/02/13 00:34:31;;;;;;;11.20;3.87;;;4.20;99.90;;;;;;5032804;28;20343;-66
2022/02/13 00:36:57;;;;;;;11.57;4.33;;;4.30;99.90;;;;;;5033121;28;20604;-66
2022/02/13 00:39:23;;;;;;;8.83;3.77;;;4.30;99.90;;;;;;5033176;28;20100;-67
2022/02/13 00:41:49;;;;;;;7.83;3.70;;;4.30;99.90;;;;;;5032388;28;20482;-66
2022/02/13 00:44:15;;;;;;;11.07;3.80;;;4.20;99.90;;;;;;5033286;28;20621;-67
2022/02/13 00:46:41;;;;;;;9.47;4.07;;;4.20;99.90;;;;;;5032795;28;20026;-67
2022/02/13 00:49:07;;;;;;;7.37;3.73;;;4.30;99.90;;;;;;5031315;28;20087;-67
2022/02/13 00:51:33;;;;;;;8.23;3.70;;;4.30;99.90;;;;;;5033007;28;20063;-67
2022/02/13 00:53:59;;;;;;;10.80;4.00;;;4.20;99.90;;;;;;5031319;28;20554;-67
2022/02/13 00:56:25;;;;;;;11.57;4.13;;;4.30;99.90;;;;;;5032179;28;20436;-67
2022/02/13 00:58:54;;;;;;;9.17;4.13;;;4.20;99.90;;;;;;5031580;28;20459;-68
2022/02/13 01:01:20;;;;;;;7.63;3.75;;;4.30;99.90;;;;;;5031286;28;20030;-67
2022/02/13 01:03:47;;;;;;;9.63;3.73;;;4.30;99.90;;;;;;5031259;28;20083;-68
2022/02/13 01:06:13;;;;;;;6.97;3.53;;;4.30;99.90;;;;;;5032872;28;20120;-68
2022/02/13 01:08:39;;;;;;;13.23;4.00;;;4.20;99.90;;;;;;5032667;28;20052;-68
2022/02/13 01:11:05;;;;;;;10.63;3.57;;;4.20;99.90;;;;;;5032214;28;20029;-67
2022/02/13 01:13:31;;;;;;;7.97;3.87;;;4.30;99.90;;;;;;5032619;28;20083;-68
2022/02/13 01:15:57;;;;;;;11.93;3.63;;;4.30;99.90;;;;;;5032400;28;20034;-68
2022/02/13 01:18:24;;;;;;;6.50;3.50;;;4.20;99.90;;;;;;5032398;28;20037;-67
2022/02/13 01:20:51;;;;;;;9.07;3.70;;;4.20;99.90;;;;;;5032298;28;20025;-67
2022/02/13 01:23:17;;;;;;;7.97;3.73;;;4.20;99.90;;;;;;5031809;28;20049;-67
2022/02/13 01:25:43;;;;;;;7.43;3.70;;;4.20;99.90;;;;;;5031791;28;20433;-66
2022/02/13 01:28:10;;;;;;;9.70;4.07;;;4.20;99.90;;;;;;5032271;28;20482;-67
2022/02/13 01:30:36;;;;;;;9.90;3.53;;;4.20;99.90;;;;;;5031933;28;20044;-67
2022/02/13 01:33:02;;;;;;;7.27;3.47;;;4.20;99.90;;;;;;5032170;28;20038;-66
2022/02/13 01:35:29;;;;;;;9.13;3.70;;;4.10;99.90;;;;;;5031759;28;20025;-67
2022/02/13 01:37:55;;;;;;;9.53;3.80;;;4.20;99.90;;;;;;5032068;28;20029;-66
2022/02/13 01:40:21;;;;;;;8.13;3.57;;;4.20;99.90;;;;;;5031530;28;20517;-66
2022/02/13 01:42:48;;;;;;;9.70;3.30;;;4.10;99.90;;;;;;5032087;28;20152;-66
2022/02/13 01:45:14;;;;;;;9.23;3.40;;;4.10;99.90;;;;;;5031935;28;20068;-66
2022/02/13 01:47:41;;;;;;;9.83;3.40;;;4.10;99.90;;;;;;5031911;28;20056;-67
2022/02/13 01:50:09;;;;;;;9.20;3.70;;;4.10;99.90;;;;;;5031929;28;20427;-66
2022/02/13 01:52:36;;;;;;;8.57;3.43;;;4.10;99.90;;;;;;5032144;28;20109;-67
2022/02/13 01:55:03;;;;;;;8.50;3.73;;;4.10;99.90;;;;;;5031326;28;20113;-66
2022/02/13 01:57:29;;;;;;;8.37;3.63;;;4.10;99.90;;;;;;5032228;28;20404;-67
2022/02/13 01:59:56;;;;;;;7.73;3.50;;;4.10;99.90;;;;;;5031637;28;20026;-66
2022/02/13 02:02:22;;;;;;;9.13;3.83;;;4.10;99.90;;;;;;5030770;28;20026;-66
2022/02/13 02:04:50;;;;;;;9.10;3.40;;;4.10;99.90;;;;;;5031645;28;20029;-67
2022/02/13 02:07:17;;;;;;;9.37;3.50;;;4.10;99.90;;;;;;5031760;28;20057;-67
2022/02/13 02:09:47;;;;;;;10.27;3.53;;;4.10;99.90;;;;;;5031107;28;20039;-66
2022/02/13 02:12:13;;;;;;;11.33;3.90;;;4.10;99.90;;;;;;5031588;28;20033;-66
2022/02/13 02:14:39;;;;;;;8.23;3.73;;;4.10;99.90;;;;;;5030232;28;20159;-65
2022/02/13 02:17:05;;;;;;;10.17;3.50;;;4.10;99.90;;;;;;5031979;28;20079;-65
2022/02/13 02:19:31;;;;;;;8.57;3.73;;;4.10;99.90;;;;;;5031882;28;20040;-67
2022/02/13 02:21:58;;;;;;;8.13;3.77;;;4.00;99.90;;;;;;5031792;28;20079;-65
2022/02/13 02:24:23;;;;;;;10.00;3.27;;;4.10;99.90;;;;;;5030014;28;20032;-67
2022/02/13 02:26:49;;;;;;;7.90;3.60;;;4.00;99.90;;;;;;5030802;28;20025;-66
2022/02/13 02:29:16;;;;;;;9.23;3.83;;;4.00;99.90;;;;;;5031070;28;20037;-66
2022/02/13 02:31:42;;;;;;;9.67;3.80;;;4.00;99.90;;;;;;5031070;28;20021;-66
2022/02/13 02:34:08;;;;;;;9.47;3.30;;;4.00;99.90;;;;;;5031183;28;20120;-67
2022/02/13 02:36:34;;;;;;;10.40;3.40;;;3.90;99.90;;;;;;5031045;28;20048;-68
2022/02/13 02:39:01;;;;;;;10.83;4.70;;;3.90;99.90;;;;;;5032132;28;20052;-65
2022/02/13 02:41:27;;;;;;;8.33;3.37;;;3.90;99.90;;;;;;5030827;28;20166;-68
2022/02/13 02:43:53;;;;;;;9.93;3.63;;;4.00;99.90;;;;;;5031207;28;20022;-67
2022/02/13 02:46:18;;;;;;;9.97;3.57;;;3.90;99.90;;;;;;5030762;28;20340;-66
2022/02/13 02:48:44;;;;;;;8.73;3.57;;;3.90;99.90;;;;;;5031178;28;20055;-66
2022/02/13 02:51:10;;;;;;;9.80;3.97;;;3.90;99.90;;;;;;5030812;28;20466;-66
2022/02/13 02:53:36;;;;;;;7.27;3.60;;;3.90;99.90;;;;;;5031162;28;20470;-67
2022/02/13 02:56:03;;;;;;;9.17;3.90;;;3.90;99.90;;;;;;5030318;28;20056;-66
2022/02/13 02:58:30;;;;;;;7.10;3.70;;;3.90;99.90;;;;;;5031260;28;20033;-66
2022/02/13 03:00:56;;;;;;;9.37;4.00;;;3.90;99.90;;;;;;5029785;28;20029;-66
2022/02/13 03:03:23;;;;;;;9.70;3.87;;;3.90;99.90;;;;;;5031700;28;20056;-66
2022/02/13 03:05:49;;;;;;;8.87;3.87;;;3.90;99.90;;;;;;5031131;28;20029;-67
2022/02/13 03:08:17;;;;;;;11.40;4.40;;;3.90;99.90;;;;;;5031009;28;20029;-66
2022/02/13 03:10:43;;;;;;;8.70;4.00;;;3.90;99.90;;;;;;5030193;28;20072;-67
2022/02/13 03:13:11;;;;;;;7.80;3.53;;;3.90;99.90;;;;;;5030958;28;20036;-67
2022/02/13 03:15:37;;;;;;;8.47;3.60;;;3.90;99.90;;;;;;5031348;28;20030;-67
2022/02/13 03:18:03;;;;;;;8.20;3.53;;;3.90;99.90;;;;;;5031307;28;20029;-67
2022/02/13 03:20:29;;;;;;;7.13;3.50;;;3.80;99.90;;;;;;5029360;28;20049;-66
2022/02/13 03:22:55;;;;;;;8.00;3.40;;;3.80;99.90;;;;;;5029669;28;20083;-67
2022/02/13 03:25:21;;;;;;;6.97;3.40;;;3.80;99.90;;;;;;5030479;28;20049;-67
2022/02/13 03:27:48;;;;;;;7.53;3.53;;;3.80;99.90;;;;;;5030997;28;20061;-67
2022/02/13 03:30:14;;;;;;;8.17;3.57;;;3.80;99.90;;;;;;5030885;28;20045;-66
2022/02/13 03:32:39;;;;;;;9.13;3.53;;;3.90;99.90;;;;;;5029913;28;20112;-67
2022/02/13 03:35:06;;;;;;;7.87;3.60;;;3.80;99.90;;;;;;5029351;28;20561;-67
2022/02/13 03:37:31;;;;;;;7.77;3.70;;;3.80;99.90;;;;;;5030818;28;20030;-66
2022/02/13 03:39:57;;;;;;;7.80;3.70;;;3.70;99.90;;;;;;5029286;28;20129;-66
2022/02/13 03:42:23;;;;;;;9.10;3.93;;;3.80;99.90;;;;;;5031517;28;20075;-65
2022/02/13 03:44:50;;;;;;;9.83;3.60;;;3.80;99.90;;;;;;5031345;28;20022;-66
2022/02/13 03:47:17;;;;;;;8.83;3.83;;;3.80;99.90;;;;;;5031957;28;20552;-67
2022/02/13 03:49:43;;;;;;;8.13;3.67;;;3.80;99.90;;;;;;5033852;28;20025;-67
2022/02/13 03:52:09;;;;;;;9.53;3.53;;;3.80;99.90;;;;;;5032618;28;20481;-67
2022/02/13 03:54:35;;;;;;;6.90;3.60;;;3.70;99.90;;;;;;5033266;28;20060;-66
2022/02/13 03:57:01;;;;;;;8.80;3.60;;;3.70;99.90;;;;;;5033773;28;20056;-68
2022/02/13 03:59:26;;;;;;;8.33;3.77;;;3.70;99.90;;;;;;5033616;28;20025;-67
2022/02/13 04:01:52;;;;;;;7.47;3.87;;;3.70;99.90;;;;;;5033677;28;20116;-65
2022/02/13 04:04:18;;;;;;;11.23;3.60;;;3.70;99.90;;;;;;5032062;28;20064;-67
2022/02/13 04:06:44;;;;;;;7.93;3.40;;;3.70;99.90;;;;;;5033822;28;20075;-68
2022/02/13 04:09:10;;;;;;;8.10;3.67;;;3.70;99.90;;;;;;5033533;28;20041;-68
2022/02/13 04:11:36;;;;;;;7.67;3.10;;;3.60;99.90;;;;;;5032946;28;20040;-67
2022/02/13 04:14:01;;;;;;;9.17;3.77;;;3.70;99.90;;;;;;5033409;28;20034;-67
2022/02/13 04:16:27;;;;;;;13.87;4.20;;;3.70;99.90;;;;;;5033198;28;20040;-68
2022/02/13 04:18:53;;;;;;;9.03;3.80;;;3.70;99.90;;;;;;5032141;28;20044;-68
2022/02/13 04:21:19;;;;;;;8.57;3.70;;;3.70;99.90;;;;;;5032761;28;20082;-67
2022/02/13 04:23:45;;;;;;;7.30;3.60;;;3.70;99.90;;;;;;5031868;28;20108;-68
2022/02/13 04:26:10;;;;;;;9.97;3.70;;;3.60;99.90;;;;;;5032735;28;20508;-68
2022/02/13 04:28:36;;;;;;;7.43;3.70;;;3.70;99.90;;;;;;5033088;28;20087;-68
2022/02/13 04:31:04;;;;;;;8.10;3.60;;;3.60;99.90;;;;;;5032729;28;20029;-67
2022/02/13 04:33:30;;;;;;;8.33;3.30;;;3.60;99.90;;;;;;5031960;28;20036;-67
2022/02/13 04:35:56;;;;;;;8.23;3.63;;;3.60;99.90;;;;;;5032681;28;20600;-66
2022/02/13 04:38:22;;;;;;;7.03;3.50;;;3.60;99.90;;;;;;5033181;28;20025;-67
2022/02/13 04:40:48;;;;;;;10.17;3.80;;;3.60;99.90;;;;;;5032297;28;20442;-67
2022/02/13 04:43:13;;;;;;;7.47;3.43;;;3.60;99.90;;;;;;5032785;28;20060;-67
2022/02/13 04:45:39;;;;;;;11.03;3.90;;;3.60;99.90;;;;;;5032730;28;20026;-67
2022/02/13 04:48:06;;;;;;;8.40;3.37;;;3.50;99.90;;;;;;5032547;28;20124;-67
2022/02/13 04:50:33;;;;;;;10.80;4.80;;;3.50;99.90;;;;;;5032218;28;20036;-67
2022/02/13 04:52:59;;;;;;;8.27;4.30;;;3.50;99.90;;;;;;5032870;28;20094;-68
2022/02/13 04:55:24;;;;;;;12.00;4.10;;;3.60;99.90;;;;;;5031565;28;20433;-67
2022/02/13 04:57:51;;;;;;;8.57;3.57;;;3.50;99.90;;;;;;5031762;28;20026;-68
2022/02/13 05:00:18;;;;;;;8.70;3.77;;;3.50;99.90;;;;;;5031680;28;20041;-68
2022/02/13 05:02:45;;;;;;;8.83;4.00;;;3.50;99.90;;;;;;5032104;28;20052;-67
2022/02/13 05:05:12;;;;;;;9.13;4.07;;;3.50;99.90;;;;;;5030493;28;20052;-67
2022/02/13 05:07:38;;;;;;;8.67;3.67;;;3.50;99.90;;;;;;5031832;28;20037;-67
2022/02/13 05:10:06;;;;;;;6.93;3.57;;;3.50;99.90;;;;;;5031767;28;20033;-67
2022/02/13 05:12:31;;;;;;;9.97;3.70;;;3.60;99.90;;;;;;5030939;28;20033;-67
2022/02/13 05:14:57;;;;;;;8.30;3.50;;;3.50;99.90;;;;;;5031793;28;20055;-67
2022/02/13 05:17:23;;;;;;;8.83;3.67;;;3.50;99.90;;;;;;5032208;28;20041;-67
2022/02/13 05:19:50;;;;;;;6.63;3.70;;;3.50;99.90;;;;;;5032122;28;20165;-67
2022/02/13 05:22:17;;;;;;;7.53;3.83;;;3.50;99.90;;;;;;5030683;28;20420;-67
2022/02/13 05:24:45;;;;;;;8.30;3.80;;;3.50;99.90;;;;;;5031230;28;20022;-67
2022/02/13 05:27:12;;;;;;;11.73;3.90;;;3.50;99.90;;;;;;5031961;28;20030;-67
2022/02/13 05:29:38;;;;;;;7.77;3.50;;;3.50;99.90;;;;;;5030303;28;20046;-67
2022/02/13 05:32:05;;;;;;;7.67;3.63;;;3.40;99.90;;;;;;5031909;28;20033;-67
2022/02/13 05:34:31;;;;;;;7.57;3.80;;;3.40;99.90;;;;;;5031311;28;20037;-66
2022/02/13 05:36:57;;;;;;;7.57;3.73;;;3.50;99.90;;;;;;5032016;28;20401;-67
2022/02/13 05:39:23;;;;;;;6.60;3.50;;;3.50;99.90;;;;;;5030404;28;20120;-66
2022/02/13 05:41:49;;;;;;;8.83;4.00;;;3.50;99.90;;;;;;5031178;28;20083;-68
2022/02/13 05:44:15;;;;;;;8.03;3.63;;;3.50;99.90;;;;;;5031490;28;20034;-67
2022/02/13 05:46:41;;;;;;;7.10;3.20;;;3.40;99.90;;;;;;5031369;28;20041;-67
2022/02/13 05:49:07;;;;;;;6.37;3.63;;;3.50;99.90;;;;;;5031384;28;20120;-67
2022/02/13 05:51:34;;;;;;;8.00;3.43;;;3.50;99.90;;;;;;5031384;28;20037;-67
2022/02/13 05:54:00;;;;;;;6.83;3.47;;;3.50;99.90;;;;;;5031435;28;20029;-66
2022/02/13 05:56:26;;;;;;;7.57;3.07;;;3.50;99.90;;;;;;5029364;28;20025;-68
2022/02/13 05:58:52;;;;;;;6.33;3.20;;;3.40;99.90;;;;;;5031380;28;20079;-67
2022/02/13 06:01:18;;;;;;;10.13;3.47;;;3.50;99.90;;;;;;5031085;28;20389;-68
2022/02/13 06:03:44;;;;;;;7.53;3.57;;;3.50;99.90;;;;;;5030931;28;20033;-66
2022/02/13 06:06:11;;;;;;;21.07;10.37;;;3.40;99.90;;;;;;5031072;28;20132;-65
2022/02/13 06:08:38;;;;;;;13.23;6.63;;;3.40;99.90;;;;;;5031446;28;20483;-67
2022/02/13 06:11:03;;;;;;;9.83;3.97;;;3.50;99.90;;;;;;5035160;23;20030;-70
2022/02/13 06:13:29;;;;;;;7.70;3.60;;;3.40;99.90;;;;;;5011690;28;20029;-70
2022/02/13 06:15:55;;;;;;;9.70;3.53;;;3.40;99.90;;;;;;5011148;28;20046;-70
2022/02/13 06:18:21;;;;;;;8.97;3.93;;;3.40;99.90;;;;;;5011419;28;20104;-70
2022/02/13 06:20:47;;;;;;;8.20;3.63;;;3.50;99.90;;;;;;5011329;28;20021;-70
2022/02/13 06:23:13;;;;;;;7.40;3.30;;;3.40;99.90;;;;;;5011067;28;20030;-69
2022/02/13 06:25:40;;;;;;;6.47;3.50;;;3.50;99.90;;;;;;4993055;28;20529;-70
2022/02/13 06:28:06;;;;;;;8.63;3.90;;;3.40;99.90;;;;;;5011117;28;20041;-70
2022/02/13 06:30:32;;;;;;;10.13;3.73;;;3.50;99.90;;;;;;5010558;28;20041;-69
2022/02/13 06:33:03;;;;;;;9.00;3.43;;;3.50;99.90;;;;;;5011085;28;20038;-71
2022/02/13 06:35:30;;;;;;;7.67;3.73;;;3.40;99.90;;;;;;5010759;28;20034;-69
2022/02/13 06:37:56;;;;;;;8.37;3.90;;;3.40;99.90;;;;;;5010985;28;20030;-70
2022/02/13 06:40:22;;;;;;;8.60;3.73;;;3.40;99.90;;;;;;5010813;28;20034;-69
2022/02/13 06:42:48;;;;;;;10.87;3.83;;;3.50;99.90;;;;;;4993267;28;20045;-69
2022/02/13 06:45:14;;;;;;;6.83;3.87;;;3.40;99.90;;;;;;5010691;28;20069;-70
2022/02/13 06:47:41;;;;;;;7.83;3.50;;;3.40;99.90;;;;;;4993193;28;20109;-69
2022/02/13 06:50:08;;;;;;;7.47;3.53;;;3.40;99.90;;;;;;4993212;28;20034;-69
2022/02/13 06:52:34;;;;;;;7.50;3.47;;;3.40;99.90;;;;;;5011080;28;20482;-70
2022/02/13 06:55:00;;;;;;;5.63;3.40;;;3.40;99.90;;;;;;5009980;28;20029;-69
2022/02/13 06:57:26;;;;;;;8.53;3.63;;;3.40;99.90;;;;;;5010590;28;20030;-69
2022/02/13 06:59:52;;;;;;;9.07;3.63;;;3.40;99.90;;;;;;5010286;28;20037;-68
2022/02/13 07:02:18;;;;;;;9.00;3.40;;;3.40;99.90;;;;;;5010513;28;20025;-70
2022/02/13 07:04:44;;;;;;;7.20;3.63;;;3.40;99.90;;;;;;4992510;28;20215;-67
2022/02/13 07:07:10;;;;;;;8.50;3.67;;;3.40;99.90;;;;;;5010461;28;20146;-71
2022/02/13 07:09:36;;;;;;;7.93;3.67;;;3.40;99.90;;;;;;5010242;28;20063;-71
2022/02/13 07:12:09;;;;;;;8.33;3.70;;;3.40;99.90;;;;;;4992444;28;20045;-68
2022/02/13 07:14:39;;;;;;;10.77;4.07;;;3.40;99.90;;;;;;5009890;28;20109;-71
2022/02/13 07:17:06;;;;;;;10.17;3.80;;;3.40;99.90;;;;;;4992571;28;20036;-72
2022/02/13 07:19:32;;;;;;;8.13;4.10;;;3.40;99.90;;;;;;5005344;28;20065;-67
2022/02/13 07:21:58;;;;;;;8.33;3.33;;;3.40;99.90;;;;;;4999308;28;20026;-68
2022/02/13 07:24:25;;;;;;;8.40;3.50;;;3.40;99.90;;;;;;4999133;28;20029;-69
2022/02/13 07:26:51;;;;;;;9.03;3.63;;;3.40;99.90;;;;;;4983475;28;20117;-69
2022/02/13 07:29:16;;;;;;;7.03;4.10;;;3.40;99.90;;;;;;5010104;28;20080;-68
2022/02/13 07:31:42;;;;;;;8.43;4.60;;;3.50;99.90;;;;;;5009695;28;20037;-71
2022/02/13 07:34:08;;;;;;;9.97;4.23;;;5.00;99.90;;;;;;4992193;28;20038;-71
2022/02/13 07:36:35;;;;;;;6.87;3.73;;;6.50;99.90;;;;;;5009919;28;20438;-71
2022/02/13 07:39:03;;;;;;;8.17;3.50;;;7.40;99.00;;;;;;5010101;28;20073;-70
2022/02/13 07:41:29;;;;;;;7.73;3.40;;;8.10;95.70;;;;;;5009509;28;20647;-69
2022/02/13 07:43:56;;;;;;;6.83;3.50;;;7.70;91.70;;;;;;5009821;28;20025;-69
2022/02/13 07:46:23;;;;;;;8.73;3.90;;;7.10;91.40;;;;;;5009689;28;20461;-68
2022/02/13 07:48:50;;;;;;;7.73;3.53;;;6.40;92.00;;;;;;5009901;28;20498;-69
2022/02/13 07:51:16;;;;;;;7.00;3.70;;;6.00;93.50;;;;;;5009682;28;20042;-68
2022/02/13 07:53:45;;;;;;;8.77;4.07;;;5.60;94.10;;;;;;5009559;28;20033;-68
2022/02/13 07:56:11;;;;;;;6.78;3.58;;;5.30;95.20;;;;;;5009321;28;20462;-69
2022/02/13 07:58:37;;;;;;;6.77;3.87;;;5.10;95.90;;;;;;4992006;28;20037;-69
2022/02/13 08:01:05;;;;;;;7.70;3.87;;;4.90;96.60;;;;;;4991844;28;20022;-69
2022/02/13 08:03:32;;;;;;;8.30;4.07;;;4.70;97.30;;;;;;5009848;28;20062;-68
2022/02/13 08:05:58;;;;;;;10.33;4.00;;;4.70;97.60;;;;;;5009826;28;20126;-69
2022/02/13 08:08:23;;;;;;;6.90;3.70;;;4.60;97.60;;;;;;5009887;28;20492;-69
2022/02/13 08:10:49;;;;;;;10.47;3.57;;;4.50;98.00;;;;;;4991481;28;20030;-69
2022/02/13 08:13:16;;;;;;;8.00;4.00;;;4.50;98.10;;;;;;5009499;28;20053;-68
2022/02/13 08:15:43;;;;;;;9.20;4.20;;;4.50;98.30;;;;;;5009168;28;20397;-68
2022/02/13 08:18:14;;;;;;;9.30;3.60;;;4.50;98.40;;;;;;5009624;28;20056;-69
2022/02/13 08:20:41;;;;;;;6.40;3.70;;;4.50;98.40;;;;;;5009335;28;20041;-69
2022/02/13 08:23:10;;;;;;;7.83;3.50;;;4.50;98.60;;;;;;5009489;28;20030;-69
2022/02/13 08:25:36;;;;;;;7.40;3.72;;;4.50;98.80;;;;;;4991050;28;20426;-69
2022/02/13 08:28:04;;;;;;;8.47;3.77;;;4.50;98.70;;;;;;5009219;28;20031;-70
2022/02/13 08:30:29;;;;;;;6.77;4.07;;;4.50;98.80;;;;;;5008965;28;20053;-69
2022/02/13 08:32:58;;;;;;;8.10;3.80;;;4.60;98.70;;;;;;5009329;28;20386;-70
2022/02/13 08:35:26;;;;;;;7.87;3.80;;;4.60;98.80;;;;;;5012369;28;20033;-69
2022/02/13 08:37:53;;;;;;;10.82;3.88;;;4.60;98.80;;;;;;5013058;28;20030;-70
2022/02/13 08:40:55;;;;;;;7.20;3.60;;;4.60;99.50;;;;;;5010829;28;20050;-74
2022/02/13 08:43:21;;;;;;;11.17;4.30;;;4.60;98.90;;;;;;5008856;28;20580;-68
2022/02/13 08:45:50;;;;;;;7.10;3.60;;;4.70;98.80;;;;;;5012638;28;20076;-69
2022/02/13 08:48:21;;;;;;;6.88;3.35;;;4.70;98.80;;;;;;5012565;28;20514;-68
2022/02/13 08:50:47;;;;;;;7.43;3.50;;;4.70;98.80;;;;;;5012274;28;20372;-68
2022/02/13 08:53:14;;;;;;;8.23;3.17;;;4.80;98.70;;;;;;5010140;28;20153;-68
2022/02/13 08:55:41;;;;;;;8.27;3.70;;;4.80;98.60;;;;;;4994161;28;20495;-69
2022/02/13 08:58:07;;;;;;;7.00;3.60;;;4.90;98.20;;;;;;5012104;28;20105;-68
2022/02/13 09:00:33;;;;;;;9.13;3.67;;;4.90;97.90;;;;;;5012381;28;20034;-71
2022/02/13 09:02:59;;;;;;;9.03;4.10;;;4.90;98.00;;;;;;5011292;28;20022;-69
2022/02/13 09:05:25;;;;;;;7.53;3.70;;;5.00;97.90;;;;;;5009055;28;20030;-68
2022/02/13 09:07:51;;;;;;;7.93;3.63;;;5.00;98.10;;;;;;5011946;28;20038;-70
2022/02/13 09:10:18;;;;;;;8.50;4.00;;;5.00;97.80;;;;;;5011993;28;20104;-71
2022/02/13 09:12:45;;;;;;;6.93;3.37;;;5.10;97.80;;;;;;5012314;28;20534;-68
2022/02/13 09:15:12;;;;;;;8.13;3.70;;;5.10;97.60;;;;;;5011763;28;20034;-71
2022/02/13 09:17:38;;;;;;;6.67;3.37;;;5.10;97.50;;;;;;5012161;28;20482;-71
2022/02/13 09:20:05;;;;;;;6.53;3.40;;;5.20;97.40;;;;;;5012270;28;20382;-71
2022/02/13 09:22:31;;;;;;;6.80;3.27;;;5.30;97.20;;;;;;5012344;28;20037;-73
2022/02/13 09:24:57;;;;;;;7.27;3.50;;;5.30;97.00;;;;;;4993642;28;20152;-72
2022/02/13 09:27:23;;;;;;;6.03;3.13;;;5.30;97.10;;;;;;5011945;28;20110;-71
2022/02/13 09:29:51;;;;;;;7.23;3.43;;;5.40;96.70;;;;;;5011598;28;20477;-71
2022/02/13 09:32:16;;;;;;;6.63;3.27;;;5.40;96.50;;;;;;4994124;28;20091;-71
2022/02/13 09:34:42;;;;;;;6.20;3.20;;;5.50;96.50;;;;;;5011335;28;20215;-73
2022/02/13 09:37:08;;;;;;;5.53;3.20;;;5.50;96.50;;;;;;4993985;28;20026;-71
2022/02/13 09:39:34;;;;;;;9.40;3.70;;;5.60;96.10;;;;;;5011405;28;20037;-71
2022/02/13 09:42:00;;;;;;;5.93;2.80;;;5.60;95.90;;;;;;5011450;28;20156;-73
2022/02/13 09:44:26;;;;;;;7.03;3.20;;;5.70;95.80;;;;;;5010943;28;20128;-73
2022/02/13 09:46:52;;;;;;;9.23;4.13;;;5.70;95.40;;;;;;5011605;28;20172;-74
2022/02/13 09:49:20;;;;;;;7.33;3.50;;;5.80;95.80;;;;;;4977423;28;20041;-75
2022/02/13 09:51:46;;;;;;;6.80;3.30;;;5.80;95.90;;;;;;5011581;28;20040;-75
2022/02/13 09:54:12;;;;;;;7.90;3.60;;;5.80;95.60;;;;;;5011427;28;20069;-75
2022/02/13 09:56:38;;;;;;;8.10;3.70;;;5.90;95.60;;;;;;5011045;28;20065;-75
2022/02/13 09:59:06;;;;;;;7.43;3.80;;;5.90;95.40;;;;;;5011705;28;20105;-75
2022/02/13 10:01:38;;;;;;;7.20;3.40;;;5.90;95.50;;;;;;5011366;28;20041;-75
2022/02/13 10:04:05;;;;;;;6.27;3.50;;;5.90;95.50;;;;;;5011314;28;20490;-75
2022/02/13 10:06:35;;;;;;;8.73;3.70;;;5.90;95.40;;;;;;5011899;28;20053;-75
2022/02/13 10:09:02;;;;;;;6.37;2.90;;;6.00;95.30;;;;;;5011320;28;20026;-75
2022/02/13 10:11:31;;;;;;;8.80;3.70;;;6.00;95.20;;;;;;5010759;28;20034;-75
2022/02/13 10:14:03;;;;;;;7.45;3.65;;;6.10;95.30;;;;;;5011111;28;20147;-75
2022/02/13 10:16:32;;;;;;;6.67;3.27;;;6.10;95.30;;;;;;5010844;28;20030;-75
2022/02/13 10:19:25;;;;;;;8.80;3.30;;;6.20;95.30;;;;;;4977504;28;20034;-76
2022/02/13 10:21:56;;;;;;;8.13;3.43;;;6.20;94.90;;;;;;5011064;28;20106;-75
2022/02/13 10:24:32;;;;;;;7.00;3.33;;;6.30;94.20;;;;;;5011113;28;20103;-75
2022/02/13 10:27:05;;;;;;;7.10;3.43;;;6.40;94.10;;;;;;5010352;28;20033;-76
2022/02/13 10:29:34;;;;;;;6.90;3.20;;;6.40;93.70;;;;;;4993310;28;20491;-76
2022/02/13 10:32:18;;;;;;;9.33;3.33;;;6.40;94.00;;;;;;5011053;28;20026;-75
2022/02/13 10:35:10;;;;;;;6.70;2.83;;;6.50;93.70;;;;;;5010476;28;20060;-75
2022/02/13 10:37:40;;;;;;;8.00;3.20;;;6.50;93.60;;;;;;5011015;28;20121;-75
2022/02/13 10:40:06;;;;;;;;;;;6.60;93.60;;;;;;5010601;28;20390;-76
2022/02/13 10:42:32;;;;;;;6.77;3.50;;;6.60;93.20;;;;;;5010585;28;19917;-76
2022/02/13 10:45:25;;;;;;;6.03;3.50;;;6.60;92.80;;;;;;5010190;28;20030;-75
2022/02/13 10:47:54;;;;;;;9.50;3.43;;;6.60;93.00;;;;;;5010068;28;20025;-75
2022/02/13 10:50:21;;;;;;;7.05;3.20;;;6.70;92.80;;;;;;5010246;28;20060;-76
2022/02/13 10:52:49;;;;;;;7.30;3.47;;;6.70;93.10;;;;;;4976758;28;20037;-75
2022/02/13 10:55:15;;;;;;;7.20;3.20;;;6.70;93.20;;;;;;5009577;28;20037;-75
2022/02/13 10:57:43;;;;;;;6.80;3.20;;;6.70;93.00;;;;;;5009723;28;20113;-75
2022/02/13 11:00:11;;;;;;;7.13;3.43;;;6.70;92.90;;;;;;5010240;28;20109;-75
2022/02/13 11:02:39;;;;;;;6.60;3.50;;;6.70;93.30;;;;;;4992800;28;20068;-75
2022/02/13 11:05:09;;;;;;;7.97;3.60;;;6.80;93.00;;;;;;4992489;28;20033;-75
2022/02/13 11:07:44;;;;;;;7.63;3.87;;;6.90;92.50;;;;;;5010311;28;20104;-75
2022/02/13 11:10:16;;;;;;;9.03;3.83;;;6.90;92.50;;;;;;5009927;28;20116;-75
2022/02/13 11:12:44;;;;;;;8.00;3.77;;;6.90;92.70;;;;;;5010136;28;20445;-75
2022/02/13 11:15:18;;;;;;;5.40;2.90;;;7.00;92.30;;;;;;5009743;28;20029;-75
2022/02/13 11:17:47;;;;;;;7.43;3.17;;;7.10;92.40;;;;;;4992994;28;20056;-75
2022/02/13 11:20:18;;;;;;;6.80;2.77;;;7.10;92.10;;;;;;4992091;28;20034;-75
2022/02/13 11:22:53;;;;;;;8.40;3.40;;;7.20;91.40;;;;;;4992560;28;20034;-75
2022/02/13 11:25:54;;;;;;;10.53;3.87;;;7.30;91.30;;;;;;5008998;28;20084;-75
2022/02/13 11:28:25;;;;;;;7.93;2.90;;;7.30;91.50;;;;;;5010157;28;20040;-75
2022/02/13 11:30:52;;;;;;;6.43;3.00;;;7.30;91.20;;;;;;5009921;28;20479;-75
2022/02/13 11:33:30;;;;;;;6.33;3.27;;;7.40;91.20;;;;;;5010086;28;20120;-75
2022/02/13 11:36:04;;;;;;;7.53;3.10;;;7.40;90.90;;;;;;4992160;28;20502;-75
2022/02/13 11:38:48;;;;;;;5.67;3.23;;;7.40;91.20;;;;;;4992508;28;20030;-74
2022/02/13 11:41:20;;;;;;;5.27;3.00;;;7.50;91.60;;;;;;5009331;28;20030;-75
2022/02/13 11:43:49;;;;;;;6.77;3.13;;;7.50;91.80;;;;;;5010081;28;20038;-75
2022/02/13 11:46:30;;;;;;;6.90;3.38;;;7.60;91.80;;;;;;4992033;28;20065;-75
2022/02/13 11:48:58;;;;;;;6.97;3.33;;;7.60;91.80;;;;;;5010032;28;20141;-75
2022/02/13 11:51:46;;;;;;;6.87;3.47;;;7.70;91.60;;;;;;5009905;28;20428;-75
2022/02/13 11:54:37;;;;;;;8.10;3.20;;;7.70;91.50;;;;;;5009610;28;20034;-75
2022/02/13 11:57:21;;;;;;;7.07;3.60;;;7.70;91.40;;;;;;5009537;28;20030;-75
2022/02/13 12:00:09;;;;;;;6.63;3.57;;;7.70;91.30;;;;;;4991929;28;20053;-75
2022/02/13 12:02:35;;;;;;;9.67;3.40;;;7.80;90.90;;;;;;5009685;28;20578;-75
2022/02/13 12:05:07;;;;;;;5.70;3.10;;;7.70;91.40;;;;;;5009339;28;20113;-75
2022/02/13 12:07:58;;;;;;;7.40;3.70;;;7.70;91.70;;;;;;5010295;28;20200;-76
2022/02/13 12:13:26;;;;;;;8.57;3.40;;;7.80;91.40;;;;;;4992110;28;20060;-86
2022/02/13 12:15:57;;;;;;;7.53;3.30;;;7.90;91.50;;;;;;4993363;28;20428;-85
2022/02/13 12:18:23;;;;;;;8.37;3.77;;;7.80;91.50;;;;;;4993740;28;20034;-85
2022/02/13 12:20:55;;;;;;;7.60;3.70;;;7.80;91.60;;;;;;4976045;28;20030;-86
2022/02/13 12:23:21;;;;;;;6.57;3.63;;;7.90;91.50;;;;;;4993397;28;20498;-86
2022/02/13 12:25:47;;;;;;;7.77;3.60;;;7.90;91.60;;;;;;4992285;28;20038;-86
2022/02/13 12:28:17;;;;;;;8.50;3.40;;;7.90;91.60;;;;;;4993310;28;20034;-85
2022/02/13 12:30:55;;;;;;;7.57;3.20;;;8.00;91.90;;;;;;4981443;28;20140;-86
2022/02/13 12:33:25;;;;;;;7.13;3.57;;;8.00;91.70;;;;;;4977378;28;20296;-86
2022/02/13 12:35:57;;;;;;;8.13;3.47;;;8.10;91.60;;;;;;4992904;28;20038;-85
2022/02/13 12:38:24;;;;;;;7.17;3.30;;;8.20;91.20;;;;;;4993138;28;20088;-85
2022/02/13 12:40:56;;;;;;;7.87;3.80;;;8.20;91.00;;;;;;4991855;28;20018;-85
2022/02/13 12:43:25;;;;;;;7.97;3.60;;;8.20;91.30;;;;;;4993015;28;20030;-86
2022/02/13 12:46:00;;;;;;;8.20;4.25;;;8.30;91.70;;;;;;4991637;28;20034;-85
2022/02/13 12:48:28;;;;;;;7.23;3.30;;;8.20;91.50;;;;;;4993054;28;20050;-85
2022/02/13 12:51:00;;;;;;;9.87;3.60;;;8.30;91.60;;;;;;4993044;28;20034;-86
2022/02/13 12:53:30;;;;;;;8.40;3.53;;;8.30;91.50;;;;;;4992863;28;20108;-86
2022/02/13 12:55:58;;;;;;;8.80;3.13;;;8.40;91.40;;;;;;4990325;28;20435;-85
2022/02/13 12:58:25;;;;;;;6.43;3.27;;;8.30;91.30;;;;;;4992956;28;20050;-86
2022/02/13 13:00:53;;;;;;;7.80;3.00;;;8.40;91.20;;;;;;4975137;28;20128;-86